createdAt,value
2022-11-05T00:00:05.860Z,9.10
2022-11-05T00:02:51.471Z,9.80
2022-11-05T00:05:38.187Z,8.50
2022-11-05T00:08:24.078Z,8.80
2022-11-05T00:10:52.164Z,8.30
2022-11-05T00:13:37.379Z,8.70
2022-11-05T00:16:34.858Z,9.10
2022-11-05T00:19:09.034Z,8.90
2022-11-05T00:21:56.754Z,9.70
2022-11-05T00:24:43.316Z,8.50
2022-11-05T00:27:11.929Z,9.10
2022-11-05T00:29:39.911Z,9.00
2022-11-05T00:32:07.878Z,8.90
2022-11-05T00:34:35.811Z,8.60
2022-11-05T00:37:05.126Z,9.60
2022-11-05T00:39:33.093Z,9.00
2022-11-05T00:42:18.395Z,9.00
2022-11-05T00:45:04.366Z,8.60
2022-11-05T00:47:50.933Z,8.90
2022-11-05T00:50:20.000Z,9.80
2022-11-05T00:52:59.549Z,8.60
2022-11-05T00:55:31.180Z,8.40
2022-11-05T00:57:59.404Z,9.20
2022-11-05T01:00:30.421Z,9.30
2022-11-05T01:03:00.268Z,8.70
2022-11-05T01:05:29.596Z,8.40
2022-11-05T01:07:59.455Z,9.30
2022-11-05T01:10:28.335Z,8.80
2022-11-05T01:12:56.361Z,8.60
2022-11-05T01:15:24.566Z,8.50
2022-11-05T01:17:53.335Z,9.80
2022-11-05T01:20:21.290Z,9.20
2022-11-05T01:22:49.327Z,9.10
2022-11-05T01:25:18.725Z,8.80
2022-11-05T01:27:46.874Z,9.00
2022-11-05T01:30:15.353Z,10.00
2022-11-05T01:32:43.478Z,8.70
2022-11-05T01:35:14.992Z,8.60
2022-11-05T01:37:43.069Z,8.60
2022-11-05T01:40:13.188Z,9.30
2022-11-05T01:42:42.553Z,8.60
2022-11-05T01:45:20.827Z,8.40
2022-11-05T01:48:03.414Z,8.70
2022-11-05T01:50:36.970Z,9.70
2022-11-05T01:53:11.074Z,8.60
2022-11-05T01:55:42.796Z,8.50
2022-11-05T01:58:17.413Z,8.90
2022-11-05T02:00:45.581Z,9.50
2022-11-05T02:03:15.645Z,10.00
2022-11-05T02:05:44.292Z,9.30
2022-11-05T02:08:18.836Z,9.30
2022-11-05T02:10:47.423Z,9.40
2022-11-05T02:13:16.714Z,9.80
2022-11-05T02:15:56.111Z,8.80
2022-11-05T02:18:32.944Z,9.70
2022-11-05T02:21:22.177Z,9.40
2022-11-05T02:24:26.164Z,8.80
2022-11-05T02:27:12.058Z,8.90
2022-11-05T02:30:10.636Z,9.30
2022-11-05T02:32:57.807Z,8.90
2022-11-05T02:35:39.346Z,8.80
2022-11-05T02:38:10.235Z,9.10
2022-11-05T02:40:47.764Z,9.90
2022-11-05T02:43:26.015Z,8.60
2022-11-05T02:46:03.740Z,9.30
2022-11-05T02:48:44.867Z,9.40
2022-11-05T02:51:19.169Z,9.40
2022-11-05T02:53:52.646Z,9.20
2022-11-05T02:56:25.458Z,10.10
2022-11-05T02:58:53.483Z,9.70
2022-11-05T03:01:21.535Z,9.40
2022-11-05T03:03:54.594Z,8.90
2022-11-05T03:06:58.889Z,9.70
2022-11-05T03:09:51.828Z,9.00
2022-11-05T03:12:27.696Z,8.90
2022-11-05T03:15:01.754Z,8.80
2022-11-05T03:17:37.444Z,9.80
2022-11-05T03:20:16.753Z,9.60
2022-11-05T03:22:50.562Z,9.20
2022-11-05T03:25:22.583Z,8.70
2022-11-05T03:27:56.809Z,9.10
2022-11-05T03:30:25.405Z,9.20
2022-11-05T03:32:59.430Z,9.20
2022-11-05T03:35:32.573Z,8.80
2022-11-05T03:38:09.156Z,8.80
2022-11-05T03:40:40.056Z,9.30
2022-11-05T03:43:10.099Z,9.40
2022-11-05T03:45:42.875Z,8.80
2022-11-05T03:48:14.039Z,9.10
2022-11-05T03:50:50.288Z,9.00
2022-11-05T03:53:22.742Z,8.90
2022-11-05T03:55:56.176Z,9.50
2022-11-05T03:58:25.809Z,10.30
2022-11-05T04:00:53.894Z,9.60
2022-11-05T04:03:21.846Z,9.10
2022-11-05T04:06:05.915Z,9.70
2022-11-05T04:08:51.201Z,10.10
2022-11-05T04:11:36.625Z,10.10
2022-11-05T04:14:04.564Z,9.10
2022-11-05T04:16:52.325Z,9.50
2022-11-05T04:19:41.518Z,10.60
2022-11-05T04:22:28.157Z,10.10
2022-11-05T04:24:56.110Z,9.00
2022-11-05T04:27:24.132Z,10.40
2022-11-05T04:30:09.702Z,9.10
2022-11-05T04:32:37.625Z,9.90
2022-11-05T04:35:05.988Z,8.90
2022-11-05T04:37:35.302Z,9.10
2022-11-05T04:40:03.278Z,10.20
2022-11-05T04:42:31.173Z,8.90
2022-11-05T04:44:59.123Z,8.80
2022-11-05T04:47:27.047Z,9.30
2022-11-05T04:49:54.979Z,9.10
2022-11-05T04:52:22.946Z,9.10
2022-11-05T04:54:52.232Z,9.00
2022-11-05T04:57:20.168Z,9.00
2022-11-05T04:59:49.379Z,8.90
2022-11-05T05:02:17.404Z,9.70
2022-11-05T05:04:45.875Z,8.50
2022-11-05T05:07:13.848Z,8.90
2022-11-05T05:09:41.780Z,8.90
2022-11-05T05:12:11.141Z,9.40
2022-11-05T05:14:39.204Z,8.50
2022-11-05T05:19:55.562Z,8.60
2022-11-05T05:22:22.615Z,8.90
2022-11-05T05:24:52.949Z,8.50
2022-11-05T05:27:23.417Z,9.30
2022-11-05T05:29:51.564Z,9.00
2022-11-05T05:32:19.497Z,8.80
2022-11-05T05:34:47.437Z,8.60
2022-11-05T05:37:15.373Z,9.00
2022-11-05T05:39:44.574Z,9.00
2022-11-05T05:42:12.729Z,9.10
2022-11-05T05:44:42.075Z,8.70
2022-11-05T05:47:10.008Z,9.10
2022-11-05T05:49:37.971Z,9.30
2022-11-05T05:52:06.477Z,9.30
2022-11-05T05:54:38.383Z,8.90
2022-11-05T05:57:09.383Z,9.40
2022-11-05T05:59:37.441Z,9.40
2022-11-05T06:02:06.930Z,8.80
2022-11-05T06:04:35.003Z,8.90
2022-11-05T06:07:02.920Z,9.70
2022-11-05T06:09:30.860Z,9.30
2022-11-05T06:11:58.989Z,9.00
2022-11-05T06:14:26.958Z,8.70
2022-11-05T06:16:54.886Z,9.70
2022-11-05T06:19:24.194Z,9.00
2022-11-05T06:21:52.176Z,9.10
2022-11-05T06:24:20.102Z,8.70
2022-11-05T06:26:48.011Z,8.90
2022-11-05T06:29:16.045Z,9.00
2022-11-05T06:31:44.009Z,9.20
2022-11-05T06:34:11.965Z,8.80
2022-11-05T06:36:41.334Z,9.30
2022-11-05T06:39:11.967Z,9.20
2022-11-05T06:42:04.095Z,9.10
2022-11-05T06:44:28.392Z,8.90
2022-11-05T06:46:56.358Z,10.20
2022-11-05T06:49:25.624Z,9.40
2022-11-05T06:51:54.952Z,9.30
2022-11-05T06:54:22.863Z,8.80
2022-11-05T06:56:50.821Z,9.20
2022-11-05T06:59:18.932Z,8.70
2022-11-05T07:01:47.087Z,9.10
2022-11-05T07:04:15.255Z,8.40
2022-11-05T07:06:43.177Z,8.80
2022-11-05T07:09:12.541Z,8.90
2022-11-05T07:11:40.456Z,8.80
2022-11-05T07:14:08.993Z,8.30
2022-11-05T07:16:36.920Z,8.60
2022-11-05T07:19:04.900Z,8.90
2022-11-05T07:21:32.844Z,9.00
2022-11-05T07:24:00.893Z,8.30
2022-11-05T07:26:34.381Z,8.40
2022-11-05T07:29:02.786Z,8.50
2022-11-05T07:31:30.754Z,8.50
2022-11-05T07:33:59.228Z,8.30
2022-11-05T07:36:27.206Z,8.90
2022-11-05T07:39:00.128Z,8.90
2022-11-05T07:41:30.263Z,9.30
2022-11-05T07:43:58.294Z,8.60
2022-11-05T07:46:26.267Z,8.90
2022-11-05T07:48:54.202Z,9.10
2022-11-05T07:51:22.279Z,9.00
2022-11-05T07:53:50.228Z,8.90
2022-11-05T07:56:18.136Z,9.40
2022-11-05T07:58:47.443Z,9.60
2022-11-05T08:01:15.462Z,9.60
2022-11-05T08:03:43.533Z,9.00
2022-11-05T08:06:11.496Z,9.50
2022-11-05T08:08:39.432Z,9.40
2022-11-05T08:11:08.318Z,9.60
2022-11-05T08:13:37.359Z,9.00
2022-11-05T08:16:08.121Z,9.90
2022-11-05T08:18:36.064Z,9.00
2022-11-05T08:21:06.113Z,9.70
2022-11-05T08:23:34.324Z,9.30
2022-11-05T08:26:05.102Z,9.90
2022-11-05T08:28:33.070Z,10.10
2022-11-05T08:31:02.054Z,9.30
2022-11-05T08:33:33.123Z,8.90
2022-11-05T08:36:04.030Z,9.20
2022-11-05T08:38:32.821Z,9.30
2022-11-05T08:41:01.000Z,9.50
2022-11-05T08:43:28.941Z,8.70
2022-11-05T08:45:56.933Z,9.10
2022-11-05T08:48:24.860Z,9.00
2022-11-05T08:50:54.251Z,9.10
2022-11-05T08:53:22.344Z,8.60
2022-11-05T08:55:51.443Z,8.90
2022-11-05T08:58:20.718Z,9.00
2022-11-05T09:00:50.736Z,9.00
2022-11-05T09:03:18.966Z,8.70
2022-11-05T09:05:47.138Z,8.70
2022-11-05T09:08:18.060Z,9.30
2022-11-05T09:10:47.048Z,8.60
2022-11-05T09:13:19.277Z,9.60
2022-11-05T09:15:48.501Z,8.80
2022-11-05T09:18:17.445Z,9.60
2022-11-05T09:20:45.734Z,8.90
2022-11-05T09:23:16.153Z,8.90
2022-11-05T09:25:44.849Z,8.90
2022-11-05T09:28:16.890Z,10.10
2022-11-05T09:30:46.712Z,9.60
2022-11-05T09:33:14.976Z,10.00
2022-11-05T09:35:43.565Z,9.00
2022-11-05T09:38:12.020Z,9.60
2022-11-05T09:40:45.176Z,9.90
2022-11-05T09:43:19.616Z,10.40
2022-11-05T09:45:50.091Z,9.30
2022-11-05T09:48:21.680Z,10.40
2022-11-05T09:50:50.863Z,10.20
2022-11-05T09:53:20.411Z,9.90
2022-11-05T09:58:30.357Z,9.60
2022-11-05T10:00:59.409Z,9.60
2022-11-05T10:03:30.424Z,10.20
2022-11-05T10:06:06.951Z,9.40
2022-11-05T10:08:42.526Z,10.50
2022-11-05T10:11:15.399Z,9.60
2022-11-05T10:13:48.171Z,10.60
2022-11-05T10:16:24.436Z,9.30
2022-11-05T10:18:56.212Z,9.80
2022-11-05T10:21:44.309Z,9.80
2022-11-05T10:24:16.828Z,9.40
2022-11-05T10:26:47.653Z,9.60
2022-11-05T10:29:23.656Z,9.90
2022-11-05T10:31:54.027Z,10.20
2022-11-05T10:34:24.626Z,10.10
2022-11-05T10:36:54.293Z,10.10
2022-11-05T10:39:23.424Z,10.20
2022-11-05T10:42:08.061Z,10.30
2022-11-05T10:44:42.365Z,10.40
2022-11-05T10:47:36.226Z,11.10
2022-11-05T10:50:09.672Z,10.70
2022-11-05T10:52:40.455Z,10.60
2022-11-05T10:55:17.573Z,10.30
2022-11-05T10:57:47.996Z,10.20
2022-11-05T11:00:28.304Z,10.30
2022-11-05T11:02:59.293Z,10.30
2022-11-05T11:05:30.766Z,10.20
2022-11-05T11:08:04.604Z,10.30
2022-11-05T11:10:50.525Z,11.20
2022-11-05T11:13:22.068Z,10.80
2022-11-05T11:15:51.663Z,10.40
2022-11-05T11:18:30.885Z,10.90
2022-11-05T11:21:08.577Z,10.30
2022-11-05T11:23:41.529Z,10.60
2022-11-05T11:26:11.303Z,10.60
2022-11-05T11:28:44.828Z,11.20
2022-11-05T11:31:15.871Z,10.90
2022-11-05T11:33:48.060Z,11.30
2022-11-05T11:36:18.686Z,10.70
2022-11-05T11:38:47.366Z,11.30
2022-11-05T11:41:25.140Z,10.60
2022-11-05T11:43:56.864Z,11.10
2022-11-05T11:46:26.867Z,10.50
2022-11-05T11:48:54.939Z,10.40
2022-11-05T11:51:34.237Z,10.30
2022-11-05T11:54:03.566Z,10.60
2022-11-05T11:56:43.093Z,10.50
2022-11-05T11:59:30.636Z,10.90
2022-11-05T12:02:35.368Z,11.00
2022-11-05T12:05:12.573Z,10.60
2022-11-05T12:07:49.756Z,11.70
2022-11-05T12:10:51.912Z,11.10
2022-11-05T12:13:44.389Z,11.30
2022-11-05T12:16:22.343Z,11.00
2022-11-05T12:19:01.263Z,11.30
2022-11-05T12:21:53.753Z,11.50
2022-11-05T12:24:51.890Z,10.90
2022-11-05T12:27:34.565Z,10.90
2022-11-05T12:30:06.478Z,10.80
2022-11-05T12:32:56.052Z,10.70
2022-11-05T12:35:45.671Z,10.70
2022-11-05T12:38:24.309Z,10.70
2022-11-05T12:41:05.501Z,10.90
2022-11-05T12:43:47.095Z,10.50
2022-11-05T12:46:26.711Z,10.40
2022-11-05T12:49:17.177Z,10.50
2022-11-05T12:51:57.324Z,11.00
2022-11-05T12:54:35.838Z,10.50
2022-11-05T12:57:05.517Z,10.50
2022-11-05T12:59:37.647Z,10.40
2022-11-05T13:02:17.921Z,11.00
2022-11-05T13:04:51.264Z,10.40
2022-11-05T13:07:27.984Z,11.10
2022-11-05T13:10:00.684Z,10.30
2022-11-05T13:12:32.955Z,10.60
2022-11-05T13:15:04.769Z,10.30
2022-11-05T13:17:36.805Z,10.20
2022-11-05T13:20:17.119Z,10.10
2022-11-05T13:22:50.604Z,10.10
2022-11-05T13:25:22.018Z,10.20
2022-11-05T13:27:56.108Z,10.30
2022-11-05T13:30:26.141Z,10.20
2022-11-05T13:32:59.057Z,10.90
2022-11-05T13:35:30.894Z,10.50
2022-11-05T13:38:22.206Z,10.90
2022-11-05T13:41:06.056Z,10.90
2022-11-05T13:43:57.400Z,10.50
2022-11-05T13:46:52.387Z,10.70
2022-11-05T13:49:46.198Z,10.70
2022-11-05T13:52:39.888Z,10.50
2022-11-05T13:55:28.699Z,10.50
2022-11-05T13:58:10.152Z,11.30
2022-11-05T14:00:43.992Z,11.10
2022-11-05T14:03:20.347Z,11.10
2022-11-05T14:05:55.437Z,10.30
2022-11-05T14:08:28.733Z,10.40
2022-11-05T14:11:04.852Z,10.70
2022-11-05T14:13:36.082Z,10.90
2022-11-05T14:16:07.535Z,10.40
2022-11-05T14:18:44.274Z,10.50
2022-11-05T14:21:34.626Z,11.20
2022-11-05T14:24:26.183Z,10.60
2022-11-05T14:27:30.328Z,10.60
2022-11-05T14:29:59.734Z,10.70
2022-11-05T14:32:43.340Z,11.40
2022-11-05T14:35:36.281Z,10.50
2022-11-05T14:38:06.138Z,10.60
2022-11-05T14:40:37.802Z,10.50
2022-11-05T14:45:39.213Z,10.50
2022-11-05T14:48:24.472Z,10.40
2022-11-05T14:50:52.676Z,10.40
2022-11-05T14:53:32.098Z,10.90
2022-11-05T14:56:04.327Z,10.50
2022-11-05T14:58:35.673Z,10.90
2022-11-05T15:01:07.648Z,11.10
2022-11-05T15:04:04.444Z,10.40
2022-11-05T15:06:35.205Z,10.30
2022-11-05T15:09:29.956Z,10.30
2022-11-05T15:12:19.453Z,10.00
2022-11-05T15:14:55.489Z,10.10
2022-11-05T15:17:29.951Z,10.80
2022-11-05T15:20:08.014Z,10.30
2022-11-05T15:22:38.104Z,10.60
2022-11-05T15:25:15.561Z,9.70
2022-11-05T15:28:00.512Z,9.80
2022-11-05T15:30:28.555Z,9.80
2022-11-05T15:33:09.800Z,10.20
2022-11-05T15:35:42.494Z,9.70
2022-11-05T15:38:27.805Z,9.80
2022-11-05T15:41:03.628Z,9.60
2022-11-05T15:43:31.925Z,9.60
2022-11-05T15:46:05.828Z,9.50
2022-11-05T15:48:36.585Z,9.50
2022-11-05T15:51:04.865Z,9.50
2022-11-05T15:54:28.529Z,9.40
2022-11-05T15:56:50.863Z,9.60
2022-11-05T15:59:21.428Z,10.60
2022-11-05T16:01:52.258Z,9.90
2022-11-05T16:04:23.799Z,9.60
2022-11-05T16:06:54.769Z,9.10
2022-11-05T16:09:24.751Z,10.10
2022-11-05T16:12:10.051Z,9.10
2022-11-05T16:14:38.014Z,9.70
2022-11-05T16:17:18.353Z,9.00
2022-11-05T16:19:48.395Z,9.50
2022-11-05T16:22:16.685Z,8.60
2022-11-05T16:24:45.401Z,10.10
2022-11-05T16:27:19.384Z,8.70
2022-11-05T16:29:53.765Z,9.60
2022-11-05T16:32:30.680Z,8.70
2022-11-05T16:35:02.128Z,9.30
2022-11-05T16:37:40.029Z,8.80
2022-11-05T16:40:14.414Z,9.00
2022-11-05T16:42:43.034Z,9.60
2022-11-05T16:45:13.965Z,8.70
2022-11-05T16:47:42.844Z,9.00
2022-11-05T16:50:24.105Z,8.50
2022-11-05T16:52:52.349Z,8.60
2022-11-05T16:55:21.136Z,8.10
2022-11-05T16:57:53.488Z,8.10
2022-11-05T17:00:22.563Z,9.20
2022-11-05T17:02:50.685Z,8.00
2022-11-05T17:05:24.047Z,7.40
2022-11-05T17:07:52.590Z,7.90
2022-11-05T17:10:21.459Z,8.50
2022-11-05T17:12:50.027Z,7.50
2022-11-05T17:15:24.621Z,7.80
2022-11-05T17:17:53.895Z,7.40
2022-11-05T17:20:34.983Z,7.60
2022-11-05T17:23:07.145Z,8.60
2022-11-05T17:25:35.483Z,7.30
2022-11-05T17:28:03.901Z,7.20
2022-11-05T17:33:00.639Z,7.00
2022-11-05T17:35:30.028Z,6.80
2022-11-05T17:45:25.086Z,6.30
2022-11-05T17:47:53.101Z,6.20
2022-11-05T17:50:21.295Z,6.20
2022-11-05T17:52:50.675Z,6.20
2022-11-05T17:57:48.491Z,6.20
2022-11-05T18:00:19.063Z,6.20
2022-11-05T18:02:48.550Z,6.10
2022-11-05T18:07:46.102Z,6.50
2022-11-05T18:10:15.862Z,6.40
2022-11-05T18:12:44.788Z,6.50
2022-11-05T18:17:41.587Z,6.50
